Time;durP1;ratioP1;P1;durP2;ratioP2;P2;SDS_P1;SDS_P2;PMS_P1;PMS_P2;Temp;Humidity;BMP_temperature;BMP_pressure;BME280_temperature;BME280_humidity;BME280_pressure;Samples;Min_cycle;Max_cycle;Signal;HPM_P1;HPM_P2
2023/05/23 00:01:05;;;;;;;2.95;1.90;;;;;;;17.87;100.00;99911.66;5053312;28;20634;-72
2023/05/23 00:03:32;;;;;;;2.55;1.77;;;;;;;17.82;100.00;99902.97;5053388;28;20246;-73
2023/05/23 00:05:59;;;;;;;2.65;1.70;;;;;;;17.69;100.00;99902.31;5053278;28;20210;-72
2023/05/23 00:08:26;;;;;;;2.60;1.83;;;;;;;17.67;100.00;99904.09;5052924;28;20188;-73
2023/05/23 00:10:53;;;;;;;1.85;1.65;;;;;;;17.73;100.00;99901.38;5052826;28;20203;-73
2023/05/23 00:13:19;;;;;;;2.55;1.85;;;;;;;17.55;100.00;99885.06;5053175;28;20261;-73
2023/05/23 00:15:47;;;;;;;2.03;1.75;;;;;;;17.44;100.00;99894.84;5017210;28;20231;-73
2023/05/23 00:18:15;;;;;;;2.47;1.88;;;;;;;17.66;100.00;99897.13;5052051;28;20196;-72
2023/05/23 00:20:42;;;;;;;2.05;1.60;;;;;;;17.50;100.00;99887.75;5052631;28;20219;-73
2023/05/23 00:23:09;;;;;;;1.98;1.73;;;;;;;17.38;100.00;99894.94;5051990;28;20195;-73
2023/05/23 00:25:37;;;;;;;1.92;1.70;;;;;;;17.38;100.00;99893.19;5052526;28;20203;-73
2023/05/23 00:28:05;;;;;;;2.45;1.83;;;;;;;17.32;100.00;99865.31;5052987;28;20203;-72
2023/05/23 00:30:33;;;;;;;2.40;1.90;;;;;;;17.32;100.00;99862.72;5052284;28;20211;-73
2023/05/23 00:33:02;;;;;;;2.38;1.63;;;;;;;17.58;100.00;99898.16;5052246;28;20709;-72
2023/05/23 00:35:30;;;;;;;2.53;1.90;;;;;;;17.57;100.00;99899.03;5052228;28;20342;-72
2023/05/23 00:37:56;;;;;;;2.33;1.70;;;;;;;17.35;100.00;99908.97;5052664;28;20201;-72
2023/05/23 00:40:23;;;;;;;1.65;1.55;;;;;;;17.38;100.00;99898.41;5052391;28;20736;-73
2023/05/23 00:42:50;;;;;;;1.42;1.33;;;;;;;17.15;100.00;99908.41;5052788;28;20329;-73
2023/05/23 00:45:18;;;;;;;2.10;1.90;;;;;;;17.13;100.00;99895.31;5052516;28;20215;-73
2023/05/23 00:47:45;;;;;;;1.60;1.50;;;;;;;17.24;100.00;99908.25;5051793;28;20207;-73
2023/05/23 00:50:14;;;;;;;1.75;1.63;;;;;;;17.20;100.00;99894.31;5050898;28;20771;-73
2023/05/23 00:52:44;;;;;;;3.42;2.30;;;;;;;17.28;100.00;99907.31;5017728;28;20329;-73
2023/05/23 00:55:11;;;;;;;2.03;1.70;;;;;;;16.97;100.00;99888.56;5051027;28;20230;-73
2023/05/23 00:57:39;;;;;;;1.90;1.65;;;;;;;17.09;100.00;99883.13;5052038;28;20199;-73
2023/05/23 01:00:09;;;;;;;2.00;1.77;;;;;;;17.17;100.00;99876.03;5051561;28;20235;-73
2023/05/23 01:02:40;;;;;;;1.88;1.70;;;;;;;17.48;100.00;99894.75;5045894;28;20199;-73
2023/05/23 01:05:07;;;;;;;1.60;1.50;;;;;;;17.44;100.00;99900.09;5051852;28;20657;-73
2023/05/23 01:07:34;;;;;;;1.88;1.70;;;;;;;17.43;100.00;99900.97;5051997;28;20214;-74
2023/05/23 01:10:03;;;;;;;1.63;1.52;;;;;;;17.44;100.00;99900.09;5052044;28;20264;-74
2023/05/23 01:12:41;;;;;;;1.70;1.60;;;;;;;17.42;100.00;99902.72;5052278;28;20211;-74
2023/05/23 01:15:10;;;;;;;1.67;1.58;;;;;;;17.32;100.00;99896.78;5051683;28;20284;-74
2023/05/23 01:17:46;;;;;;;1.63;1.52;;;;;;;17.25;100.00;99889.91;5051873;28;20344;-74
2023/05/23 01:20:19;;;;;;;1.70;1.60;;;;;;;17.28;100.00;99905.56;5051861;28;20223;-74
2023/05/23 01:23:11;;;;;;;2.10;1.90;;;;;;;17.29;100.00;99907.31;5051740;28;20653;-73
2023/05/23 01:26:03;;;;;;;1.70;1.60;;;;;;;17.35;100.00;99896.72;5048226;28;20282;-74
2023/05/23 01:28:33;;;;;;;1.50;1.40;;;;;;;17.22;100.00;99889.06;5051644;28;20200;-74
2023/05/23 01:31:03;;;;;;;1.60;1.50;;;;;;;16.74;100.00;99820.78;5051618;28;20208;-74
2023/05/23 01:33:33;;;;;;;1.83;1.65;;;;;;;17.18;100.00;99895.25;5051251;28;20231;-74
2023/05/23 01:36:02;;;;;;;1.70;1.60;;;;;;;17.15;100.00;99893.53;5051724;28;20721;-74
2023/05/23 01:38:29;;;;;;;1.52;1.42;;;;;;;17.01;100.00;99892.88;5051715;28;20286;-74
2023/05/23 01:40:56;;;;;;;1.45;1.35;;;;;;;16.97;100.00;99893.81;5051575;28;20808;-74
2023/05/23 01:43:24;;;;;;;1.48;1.38;;;;;;;16.98;100.00;99889.44;5051252;28;20587;-74
2023/05/23 01:45:54;;;;;;;1.70;1.60;;;;;;;16.97;100.00;99888.56;5051619;28;20214;-74
2023/05/23 01:48:22;;;;;;;1.50;1.40;;;;;;;16.89;100.00;99887.81;5051174;28;20214;-74
2023/05/23 01:50:49;;;;;;;1.65;1.55;;;;;;;16.81;100.00;99881.78;5051223;28;20196;-74
2023/05/23 01:53:17;;;;;;;1.70;1.60;;;;;;;16.72;100.00;99879.31;5050601;28;20203;-74
2023/05/23 01:55:45;;;;;;;1.60;1.50;;;;;;;16.72;100.00;99893.28;5051713;28;20353;-74
2023/05/23 01:58:12;;;;;;;1.60;1.50;;;;;;;16.77;100.00;99890.56;5032648;28;20210;-73
2023/05/23 02:00:39;;;;;;;1.52;1.42;;;;;;;16.65;100.00;99880.28;5050828;28;20204;-74
2023/05/23 02:03:07;;;;;;;1.80;1.70;;;;;;;16.70;100.00;99886.28;5051255;28;20191;-74
2023/05/23 02:05:34;;;;;;;1.50;1.40;;;;;;;16.65;100.00;99896.84;5051020;28;20203;-74
2023/05/23 02:08:01;;;;;;;1.70;1.60;;;;;;;16.64;100.00;99899.47;5051333;28;20200;-74
2023/05/23 02:10:27;;;;;;;1.50;1.40;;;;;;;16.63;100.00;99903.84;5050846;28;20199;-69
2023/05/23 02:12:54;;;;;;;1.80;1.70;;;;;;;16.66;100.00;99905.53;5050688;28;20204;-70
2023/05/23 02:15:21;;;;;;;1.35;1.25;;;;;;;16.62;100.00;99912.56;5050876;28;20215;-74
2023/05/23 02:17:48;;;;;;;1.33;1.23;;;;;;;16.56;100.00;99907.41;5051151;28;20204;-74
2023/05/23 02:20:17;;;;;;;1.90;1.70;;;;;;;16.62;100.00;99901.25;5031822;28;20273;-73
2023/05/23 02:22:44;;;;;;;1.60;1.50;;;;;;;16.51;100.00;99903.97;5050455;28;20651;-73
2023/05/23 02:25:11;;;;;;;1.70;1.60;;;;;;;16.47;100.00;99915.38;5050533;28;20202;-74
2023/05/23 02:27:38;;;;;;;1.52;1.42;;;;;;;16.52;100.00;99910.06;5015814;28;20196;-74
2023/05/23 02:30:06;;;;;;;1.60;1.50;;;;;;;16.61;100.00;99920.47;5050332;28;20203;-74
2023/05/23 02:32:32;;;;;;;1.70;1.60;;;;;;;16.48;100.00;99917.06;5050299;28;20234;-74
2023/05/23 02:34:59;;;;;;;1.70;1.60;;;;;;;16.50;100.00;99911.84;5015332;28;20203;-74
2023/05/23 02:37:27;;;;;;;1.75;1.65;;;;;;;16.41;100.00;99901.50;5032317;28;20238;-74
2023/05/23 02:39:54;;;;;;;1.75;1.63;;;;;;;16.46;100.00;99921.47;5050400;28;20191;-74
2023/05/23 02:42:21;;;;;;;1.50;1.40;;;;;;;16.54;100.00;99930.13;5050268;28;20206;-74
2023/05/23 02:44:48;;;;;;;1.92;1.75;;;;;;;16.50;100.00;99917.06;5050420;28;20269;-74
2023/05/23 02:47:14;;;;;;;1.70;1.60;;;;;;;16.50;100.00;99940.63;5049675;28;20203;-74
2023/05/23 02:49:41;;;;;;;1.65;1.55;;;;;;;16.50;100.00;99927.53;5050471;28;20210;-74
2023/05/23 02:52:08;;;;;;;1.52;1.42;;;;;;;16.40;100.00;99928.53;5049909;28;20219;-70
2023/05/23 02:54:36;;;;;;;1.73;1.63;;;;;;;16.27;100.00;99922.53;5050164;28;20621;-75
2023/05/23 02:57:03;;;;;;;1.70;1.60;;;;;;;16.24;100.00;99920.84;5050014;28;20692;-74
2023/05/23 02:59:30;;;;;;;1.75;1.65;;;;;;;16.09;100.00;99910.53;5049775;28;20522;-74
2023/05/23 03:01:56;;;;;;;1.75;1.65;;;;;;;16.22;100.00;99927.84;5049568;28;20196;-74
2023/05/23 03:04:23;;;;;;;1.70;1.60;;;;;;;16.21;100.00;99928.72;5015198;28;20195;-75
2023/05/23 03:06:53;;;;;;;1.70;1.60;;;;;;;16.31;100.00;99927.75;5050171;28;20207;-74
2023/05/23 03:09:20;;;;;;;1.92;1.75;;;;;;;16.35;100.00;99932.06;5050376;28;20203;-75
2023/05/23 03:11:48;;;;;;;1.58;1.48;;;;;;;16.43;100.00;99928.50;5050020;28;20680;-75
2023/05/23 03:14:15;;;;;;;1.85;1.67;;;;;;;16.36;100.00;99925.94;5050216;28;20200;-74
2023/05/23 03:16:41;;;;;;;1.70;1.60;;;;;;;16.51;100.00;99929.28;5050272;28;20215;-74
2023/05/23 03:19:08;;;;;;;1.30;1.30;;;;;;;16.72;100.00;99931.69;5015161;28;20200;-75
2023/05/23 03:21:35;;;;;;;1.63;1.52;;;;;;;16.87;100.00;99933.25;5031540;28;20208;-75
2023/05/23 03:24:02;;;;;;;1.40;1.30;;;;;;;17.10;100.00;99931.16;5013882;28;20654;-75
2023/05/23 03:26:29;;;;;;;1.50;1.40;;;;;;;17.24;100.00;99923.97;5050635;28;20207;-74
2023/05/23 03:28:57;;;;;;;1.20;1.20;;;;;;;17.78;100.00;99938.03;5050296;28;20192;-73
2023/05/23 03:31:24;;;;;;;1.05;1.05;;;;;;;18.06;100.00;99948.91;5049371;28;20199;-76
2023/05/23 03:33:52;;;;;;;1.00;1.00;;;;;;;18.40;100.00;99941.28;5049832;28;20279;-75
2023/05/23 03:36:20;;;;;;;1.55;1.55;;;;;;;18.71;100.00;99935.44;5050013;28;20239;-75
2023/05/23 03:38:47;;;;;;;1.20;1.20;;;;;;;19.01;100.00;99912.06;5050001;28;20286;-75
2023/05/23 03:41:14;;;;;;;1.30;1.30;;;;;;;19.67;100.00;99957.84;5046742;28;20208;-75
2023/05/23 03:43:40;;;;;;;0.90;0.90;;;;;;;20.17;100.00;99968.88;5048490;28;20211;-75
2023/05/23 03:46:09;;;;;;;1.23;1.23;;;;;;;20.88;100.00;99974.88;5048738;28;20206;-75
2023/05/23 03:48:35;;;;;;;1.27;1.27;;;;;;;21.34;100.00;99973.53;5049264;28;20589;-75
2023/05/23 03:51:03;;;;;;;1.20;1.20;;;;;;;21.90;100.00;99972.66;5014572;28;20196;-79
2023/05/23 03:53:29;;;;;;;1.42;1.42;;;;;;;22.35;100.00;99983.44;5051222;28;20210;-74
2023/05/23 03:55:56;;;;;;;1.30;1.30;;;;;;;22.55;97.25;99980.09;5052936;28;20231;-68
2023/05/23 03:58:23;;;;;;;1.40;1.40;;;;;;;22.56;93.14;99982.69;5052999;28;20662;-70
2023/05/23 04:00:51;;;;;;;1.05;1.05;;;;;;;22.46;92.49;99975.13;5052999;28;20254;-70
2023/05/23 04:03:20;;;;;;;1.20;1.20;;;;;;;22.96;90.59;99991.84;5053164;28;20273;-70
2023/05/23 04:05:46;;;;;;;1.95;1.85;;;;;;;23.05;88.28;99997.66;5052518;28;20215;-76
2023/05/23 04:08:13;;;;;;;1.10;1.10;;;;;;;22.85;87.92;99983.44;5053553;28;20211;-76
2023/05/23 04:10:40;;;;;;;1.20;1.20;;;;;;;23.14;87.19;99992.03;5053495;28;20206;-72
2023/05/23 04:13:08;;;;;;;1.00;1.00;;;;;;;23.04;87.12;100010.97;5053055;28;20611;-72
2023/05/23 04:15:35;;;;;;;1.00;1.00;;;;;;;22.53;89.99;100009.22;5031944;28;20227;-78
2023/05/23 04:18:02;;;;;;;1.20;1.20;;;;;;;22.31;91.91;100007.38;5053472;28;20227;-78
2023/05/23 04:20:30;;;;;;;1.10;1.10;;;;;;;21.63;96.77;99984.06;5054011;28;20201;-77
2023/05/23 04:22:57;;;;;;;1.17;1.17;;;;;;;21.39;100.00;100003.28;5053571;28;20203;-77
2023/05/23 04:25:25;;;;;;;1.05;1.05;;;;;;;21.11;100.00;100003.25;5053592;28;20199;-79
2023/05/23 04:27:53;;;;;;;1.10;1.10;;;;;;;20.40;100.00;99999.94;5053621;28;20230;-77
2023/05/23 04:30:20;;;;;;;1.20;1.20;;;;;;;20.25;100.00;100009.06;5053488;28;20199;-78
2023/05/23 04:32:47;;;;;;;1.15;1.15;;;;;;;20.02;100.00;100009.63;5054155;28;20702;-79
2023/05/23 04:35:13;;;;;;;1.48;1.40;;;;;;;19.72;100.00;100005.13;5054509;28;20634;-79
2023/05/23 04:37:44;;;;;;;1.30;1.30;;;;;;;19.47;100.00;99985.53;5053580;28;20702;-79
2023/05/23 04:40:12;;;;;;;1.30;1.30;;;;;;;19.44;100.00;99977.72;5054000;28;20571;-79
2023/05/23 04:42:41;;;;;;;1.42;1.35;;;;;;;19.75;100.00;99997.16;5053231;28;20203;-77
2023/05/23 04:45:10;;;;;;;1.20;1.20;;;;;;;20.55;100.00;100013.53;5053416;28;20271;-78
2023/05/23 04:47:37;;;;;;;1.10;1.10;;;;;;;21.13;100.00;100012.81;5018586;28;20261;-78
2023/05/23 04:50:04;;;;;;;1.20;1.20;;;;;;;21.43;100.00;100011.06;5052746;28;20204;-77
2023/05/23 04:52:32;;;;;;;1.17;1.17;;;;;;;21.41;100.00;100007.59;5035459;28;20208;-76
2023/05/23 04:55:01;;;;;;;1.50;1.42;;;;;;;22.19;100.00;100014.78;5060494;28;20215;-76
2023/05/23 04:57:28;;;;;;;1.30;1.30;;;;;;;22.98;93.25;100009.38;5058393;28;20223;-69
2023/05/23 04:59:55;;;;;;;1.30;1.30;;;;;;;23.76;88.28;100011.72;5051841;28;20211;-68
2023/05/23 05:02:22;;;;;;;1.25;1.25;;;;;;;24.31;83.69;100015.66;5055708;28;20204;-70
2023/05/23 05:04:50;;;;;;;1.25;1.25;;;;;;;24.41;79.66;100006.38;5052499;28;20211;-71
2023/05/23 05:07:16;;;;;;;1.25;1.25;;;;;;;24.46;79.56;100022.94;5053898;28;20203;-76
2023/05/23 05:09:43;;;;;;;1.30;1.30;;;;;;;24.89;76.93;100017.53;5067796;28;20199;-70
2023/05/23 05:12:11;;;;;;;1.40;1.30;;;;;;;25.25;74.50;100022.97;5032793;28;20723;-74
2023/05/23 05:14:38;;;;;;;1.52;1.42;;;;;;;25.10;75.12;100024.53;5052049;28;20215;-74
2023/05/23 05:17:05;;;;;;;1.33;1.23;;;;;;;25.13;72.43;100026.19;5051605;28;20223;-68
2023/05/23 05:19:32;;;;;;;2.20;1.67;;;;;;;25.65;73.01;100019.31;5054426;28;21334;-67
2023/05/23 05:22:00;;;;;;;1.88;1.55;;;;;;;25.76;67.41;100018.81;5050798;28;20567;-74
2023/05/23 05:24:27;;;;;;;2.75;1.80;;;;;;;25.76;68.49;100022.31;5038353;28;20208;-75
2023/05/23 05:26:54;;;;;;;3.00;1.73;;;;;;;25.82;67.44;100024.72;5050939;28;20282;-73
2023/05/23 05:29:22;;;;;;;2.50;1.70;;;;;;;25.97;66.48;100023.94;5053664;28;20219;-72
2023/05/23 05:31:49;;;;;;;2.03;1.50;;;;;;;25.39;65.90;100009.06;5051014;28;20231;-66
2023/05/23 05:34:16;;;;;;;2.42;1.70;;;;;;;25.44;66.68;100030.91;5016060;28;20230;-69
2023/05/23 05:36:46;;;;;;;2.15;1.60;;;;;;;25.75;66.40;100025.94;5050784;28;20635;-68
2023/05/23 05:39:13;;;;;;;1.38;1.20;;;;;;;25.96;65.79;100027.56;5051264;28;20740;-68
2023/05/23 05:41:40;;;;;;;1.83;1.50;;;;;;;26.14;64.54;100020.47;5051310;28;20199;-68
2023/05/23 05:44:08;;;;;;;1.67;1.35;;;;;;;26.05;64.18;100018.25;5051771;28;20207;-74
2023/05/23 05:46:37;;;;;;;1.60;1.48;;;;;;;25.86;66.11;100028.94;5047958;28;20202;-67
2023/05/23 05:49:03;;;;;;;1.33;1.23;;;;;;;25.07;68.93;100018.50;5044714;28;20195;-74
2023/05/23 05:51:30;;;;;;;1.65;1.48;;;;;;;24.38;74.60;100023.28;5055208;28;20210;-76
2023/05/23 05:53:57;;;;;;;3.15;2.30;;;;;;;23.82;79.48;100007.03;5070776;28;20212;-75
2023/05/23 05:56:25;;;;;;;2.05;1.67;;;;;;;23.93;81.23;99990.72;5015526;28;20264;-74
2023/05/23 05:58:51;;;;;;;2.15;1.58;;;;;;;24.50;79.12;100012.16;5056718;28;20199;-75
2023/05/23 06:01:18;;;;;;;1.85;1.60;;;;;;;24.69;78.81;100023.66;5065357;28;20199;-74
2023/05/23 06:03:47;;;;;;;1.77;1.65;;;;;;;24.76;78.51;100012.81;5070785;28;20268;-77
2023/05/23 06:06:13;;;;;;;2.15;1.80;;;;;;;24.98;74.49;100027.72;5050380;28;20573;-76
2023/05/23 06:08:41;;;;;;;1.65;1.55;;;;;;;24.45;79.04;100031.81;5046158;28;20577;-79
2023/05/23 06:11:08;;;;;;;2.30;2.10;;;;;;;24.48;80.90;100024.59;5052229;28;20690;-80
2023/05/23 06:13:35;;;;;;;1.90;1.60;;;;;;;24.55;78.70;100026.06;5051638;28;20689;-75
2023/05/23 06:16:02;;;;;;;2.00;1.65;;;;;;;24.18;81.69;100020.59;5050520;28;20210;-75
2023/05/23 06:18:28;;;;;;;2.42;1.85;;;;;;;23.44;87.18;100005.03;5050935;28;20238;-75
2023/05/23 06:20:56;;;;;;;1.77;1.67;;;;;;;24.03;84.81;100021.19;5050638;28;20200;-75
2023/05/23 06:23:23;;;;;;;2.17;1.80;;;;;;;23.77;85.23;100024.03;5050985;28;20202;-75
2023/05/23 06:25:50;;;;;;;2.25;1.67;;;;;;;23.63;85.48;100025.44;5051080;28;20215;-74
2023/05/23 06:28:17;;;;;;;1.65;1.55;;;;;;;23.03;86.87;100030.38;5050989;28;20262;-75
2023/05/23 06:30:43;;;;;;;1.60;1.50;;;;;;;22.63;90.75;100030.91;5050592;28;20203;-74
2023/05/23 06:33:11;;;;;;;2.15;2.05;;;;;;;22.94;90.87;100030.69;5015673;28;20223;-75
2023/05/23 06:35:38;;;;;;;1.67;1.58;;;;;;;23.01;92.58;100017.19;5050303;28;20681;-74
2023/05/23 06:38:07;;;;;;;1.83;1.73;;;;;;;22.85;92.48;100026.63;5049138;28;20595;-75
2023/05/23 06:40:33;;;;;;;1.75;1.65;;;;;;;22.72;91.43;100028.00;5031057;28;20204;-75
2023/05/23 06:43:00;;;;;;;1.92;1.70;;;;;;;22.32;94.33;100012.59;5031108;28;20211;-73
2023/05/23 06:45:27;;;;;;;1.85;1.52;;;;;;;22.45;99.80;100021.84;4996505;28;20254;-74
2023/05/23 06:47:54;;;;;;;2.15;1.65;;;;;;;22.51;100.00;100002.28;5032335;28;20204;-73
2023/05/23 06:50:21;;;;;;;2.25;1.85;;;;;;;22.04;100.00;99999.47;5050799;28;20257;-74
2023/05/23 06:52:48;;;;;;;1.77;1.55;;;;;;;22.30;99.31;100010.91;5027211;28;20211;-75
2023/05/23 06:55:18;;;;;;;2.05;1.80;;;;;;;22.68;100.00;100003.44;5030797;28;20734;-74
2023/05/23 06:57:45;;;;;;;2.10;1.65;;;;;;;22.75;100.00;99993.50;5048255;28;20235;-73
2023/05/23 07:00:13;;;;;;;2.22;2.03;;;;;;;22.60;100.00;100004.59;5050766;28;20203;-72
2023/05/23 07:02:40;;;;;;;1.52;1.42;;;;;;;22.55;99.82;100006.50;5032268;28;20218;-75
2023/05/23 07:05:08;;;;;;;0.60;0.60;;;;;;;23.06;100.00;100003.81;5048739;28;20638;-75
2023/05/23 07:07:34;;;;;;;0.60;0.60;;;;;;;23.21;91.97;99988.25;5044190;28;20214;-76
2023/05/23 07:10:01;;;;;;;0.60;0.60;;;;;;;23.84;91.66;100005.19;5048403;28;20249;-75
2023/05/23 07:12:29;;;;;;;0.60;0.60;;;;;;;23.89;88.81;99997.94;5048537;28;20330;-75
2023/05/23 07:14:56;;;;;;;0.65;0.65;;;;;;;23.76;84.61;99995.84;5050387;28;20236;-75
2023/05/23 07:17:23;;;;;;;0.93;0.93;;;;;;;24.07;82.05;100009.56;5031116;28;20246;-75
2023/05/23 07:19:50;;;;;;;0.60;0.60;;;;;;;23.80;85.34;100006.22;5049932;28;20690;-75
2023/05/23 07:22:16;;;;;;;0.60;0.60;;;;;;;23.76;84.84;99999.31;5049451;28;20216;-75
2023/05/23 07:24:43;;;;;;;0.90;0.90;;;;;;;23.93;83.23;99996.00;5049593;28;20204;-75
2023/05/23 07:27:10;;;;;;;0.60;0.60;;;;;;;24.15;82.69;100010.97;5051307;28;20207;-75
2023/05/23 07:29:38;;;;;;;0.60;0.60;;;;;;;23.75;81.81;100008.22;5054021;28;20203;-74
2023/05/23 07:32:05;;;;;;;0.60;0.60;;;;;;;23.63;84.41;99990.16;5018160;28;20235;-74
2023/05/23 07:34:32;;;;;;;0.70;0.70;;;;;;;23.47;85.16;100004.94;5053582;28;20254;-75
2023/05/23 07:36:59;;;;;;;0.70;0.70;;;;;;;23.54;85.99;100007.25;5053923;28;20203;-74
2023/05/23 07:39:26;;;;;;;0.55;0.55;;;;;;;23.68;86.19;100009.38;5054098;28;20195;-74
2023/05/23 07:41:53;;;;;;;0.98;0.98;;;;;;;23.86;86.41;100013.94;5053850;28;20291;-75
2023/05/23 07:44:20;;;;;;;1.02;1.02;;;;;;;23.80;89.85;100006.22;5053763;28;20206;-73
2023/05/23 07:46:48;;;;;;;0.60;0.60;;;;;;;23.61;87.44;100002.59;5053788;28;20204;-72
2023/05/23 07:49:15;;;;;;;0.68;0.68;;;;;;;23.55;89.54;100009.00;5053914;28;20204;-72
2023/05/23 07:51:42;;;;;;;1.00;1.00;;;;;;;23.40;88.00;100000.78;5053687;28;20211;-72
2023/05/23 07:54:09;;;;;;;0.60;0.60;;;;;;;23.45;86.92;100009.41;5018142;28;20286;-72
2023/05/23 07:56:37;;;;;;;0.60;0.60;;;;;;;23.44;89.36;100005.03;5053043;28;20202;-72
2023/05/23 07:59:04;;;;;;;0.50;0.50;;;;;;;23.60;87.64;100000.88;5052793;28;20300;-72
2023/05/23 08:01:31;;;;;;;0.60;0.60;;;;;;;23.78;88.02;100000.16;5052721;28;20670;-72
2023/05/23 08:03:59;;;;;;;0.65;0.65;;;;;;;23.91;84.09;100000.50;5052836;28;20231;-72
2023/05/23 08:06:26;;;;;;;0.70;0.70;;;;;;;24.09;82.86;100000.59;5052627;28;20207;-72
2023/05/23 08:08:52;;;;;;;0.93;0.93;;;;;;;24.04;81.86;100002.56;5018293;28;20210;-72
2023/05/23 08:11:19;;;;;;;0.70;0.70;;;;;;;24.23;81.50;99997.41;5017929;28;20337;-72
2023/05/23 08:13:46;;;;;;;0.70;0.70;;;;;;;24.40;80.27;99996.72;5052285;28;20211;-72
2023/05/23 08:16:13;;;;;;;0.60;0.60;;;;;;;24.55;77.62;99990.72;5052807;28;20202;-72
2023/05/23 08:18:40;;;;;;;0.70;0.70;;;;;;;24.76;76.11;99987.13;5052609;28;20701;-72
2023/05/23 08:21:08;;;;;;;0.60;0.60;;;;;;;24.73;74.13;99992.56;5053336;28;20200;-72
2023/05/23 08:23:35;;;;;;;0.60;0.60;;;;;;;24.30;75.73;99988.28;5052539;28;20204;-73
2023/05/23 08:26:02;;;;;;;0.70;0.70;;;;;;;24.20;76.96;99989.59;5052386;28;20196;-72
2023/05/23 08:28:29;;;;;;;0.60;0.60;;;;;;;24.41;75.57;99988.69;5052336;28;20265;-71
2023/05/23 08:30:57;;;;;;;0.70;0.70;;;;;;;24.33;75.21;99984.66;5052885;28;20222;-72
2023/05/23 08:33:23;;;;;;;0.60;0.60;;;;;;;24.13;76.83;99981.03;5052395;28;20223;-73
2023/05/23 08:35:50;;;;;;;0.68;0.68;;;;;;;24.58;76.07;99977.34;5052276;28;20269;-73
2023/05/23 08:38:20;;;;;;;0.60;0.60;;;;;;;24.58;74.21;99972.91;5051563;28;20285;-73
2023/05/23 08:40:51;;;;;;;0.70;0.70;;;;;;;24.95;77.10;99977.47;5052141;28;20261;-73
2023/05/23 08:43:19;;;;;;;0.55;0.55;;;;;;;24.91;74.07;99980.31;5052115;28;20337;-73
2023/05/23 08:45:47;;;;;;;0.60;0.60;;;;;;;24.94;72.34;99970.41;5052152;28;20257;-73
2023/05/23 08:48:17;;;;;;;0.52;0.52;;;;;;;25.00;71.77;99970.16;5033440;28;20269;-76
2023/05/23 08:50:47;;;;;;;0.60;0.60;;;;;;;25.18;71.56;99971.09;5052188;28;20719;-75
2023/05/23 08:53:19;;;;;;;0.55;0.55;;;;;;;24.92;69.43;99972.28;5051910;28;20306;-74
2023/05/23 08:55:47;;;;;;;0.70;0.70;;;;;;;24.92;72.00;99982.03;5057483;28;20586;-74
2023/05/23 08:58:15;;;;;;;0.80;0.80;;;;;;;24.92;70.48;99977.59;5068254;28;20677;-74
2023/05/23 09:00:43;;;;;;;0.60;0.60;;;;;;;24.85;70.53;99973.50;5071607;28;20286;-74
2023/05/23 09:03:11;;;;;;;0.80;0.80;;;;;;;25.09;71.73;99974.16;5028825;28;20281;-74
2023/05/23 09:05:37;;;;;;;0.70;0.70;;;;;;;25.21;69.41;99972.75;5064572;28;20242;-74
2023/05/23 09:08:04;;;;;;;0.70;0.70;;;;;;;25.15;67.23;99976.53;5064547;28;20207;-74
2023/05/23 09:10:31;;;;;;;0.60;0.60;;;;;;;25.37;68.30;99976.38;5057543;28;20207;-75
2023/05/23 09:13:00;;;;;;;0.60;0.60;;;;;;;25.57;65.69;99971.03;5069279;28;20207;-76
2023/05/23 09:15:27;;;;;;;0.70;0.70;;;;;;;25.48;66.14;99967.00;5040756;28;20204;-73
2023/05/23 09:18:02;;;;;;;0.82;0.82;;;;;;;25.16;67.48;99973.81;5058707;28;20234;-73
2023/05/23 09:20:29;;;;;;;0.73;0.73;;;;;;;25.07;67.33;99966.28;5051223;28;20788;-73
2023/05/23 09:22:56;;;;;;;0.70;0.70;;;;;;;24.85;71.92;99957.59;5056988;28;20203;-74
2023/05/23 09:25:23;;;;;;;0.70;0.70;;;;;;;25.17;70.38;99950.78;5061254;28;20199;-73
2023/05/23 09:27:52;;;;;;;0.70;0.70;;;;;;;25.52;67.90;99957.97;5061975;28;20253;-74
2023/05/23 09:30:20;;;;;;;0.60;0.60;;;;;;;25.84;69.48;99953.75;5071343;28;20236;-75
2023/05/23 09:32:59;;;;;;;0.70;0.70;;;;;;;26.11;64.59;99951.53;5066096;28;20250;-75
2023/05/23 09:35:28;;;;;;;0.80;0.80;;;;;;;25.77;65.95;99955.00;5070692;28;20198;-74
2023/05/23 09:37:58;;;;;;;0.70;0.70;;;;;;;25.89;64.84;99957.06;5065663;28;20238;-73
2023/05/23 09:40:30;;;;;;;0.70;0.70;;;;;;;25.87;66.14;99955.38;5071629;28;20226;-73
2023/05/23 09:43:02;;;;;;;1.35;1.25;;;;;;;26.23;66.05;99950.03;5070646;28;20226;-72
2023/05/23 09:45:32;;;;;;;0.70;0.70;;;;;;;25.80;63.30;99938.03;5071060;28;20203;-69
2023/05/23 09:47:59;;;;;;;0.60;0.60;;;;;;;25.97;63.83;99933.59;5069779;28;20211;-68
2023/05/23 09:50:32;;;;;;;0.60;0.60;;;;;;;26.57;63.94;99953.56;5054287;28;20663;-73
2023/05/23 09:52:59;;;;;;;0.70;0.70;;;;;;;26.50;62.98;99953.97;5050939;28;20220;-73
2023/05/23 09:55:25;;;;;;;0.70;0.70;;;;;;;26.45;62.10;99946.22;5065527;28;20237;-74
2023/05/23 09:57:55;;;;;;;0.70;0.70;;;;;;;26.50;60.63;99948.63;5060539;28;20238;-67
2023/05/23 10:00:24;;;;;;;0.73;0.73;;;;;;;26.74;59.39;99951.78;5064650;28;20293;-71
2023/05/23 10:03:01;;;;;;;0.70;0.70;;;;;;;26.73;61.06;99944.75;5067893;28;20207;-70
2023/05/23 10:05:35;;;;;;;0.80;0.80;;;;;;;26.75;59.97;99942.88;5069686;28;20257;-70
2023/05/23 10:08:07;;;;;;;0.70;0.70;;;;;;;26.76;59.58;99944.56;5048295;28;20713;-71
2023/05/23 10:10:35;;;;;;;0.80;0.80;;;;;;;26.80;59.78;99941.69;5069897;28;20281;-71
2023/05/23 10:13:03;;;;;;;0.70;0.70;;;;;;;27.12;59.25;99931.97;5060435;28;20203;-71
2023/05/23 10:15:38;;;;;;;0.70;0.70;;;;;;;27.17;59.17;99935.25;5050335;28;20199;-71
2023/05/23 10:18:12;;;;;;;0.80;0.80;;;;;;;27.34;58.05;99936.97;5050457;28;20309;-71
2023/05/23 10:20:43;;;;;;;0.90;0.90;;;;;;;27.65;57.84;99936.97;5050278;28;20586;-72
2023/05/23 10:23:12;;;;;;;0.80;0.80;;;;;;;27.20;55.93;99928.88;5050403;28;20265;-72
2023/05/23 10:25:40;;;;;;;0.70;0.70;;;;;;;27.07;56.26;99910.94;5050159;28;20204;-72
2023/05/23 10:28:07;;;;;;;1.02;1.02;;;;;;;27.07;55.11;99918.94;5050493;28;20657;-71
2023/05/23 10:30:34;;;;;;;0.90;0.90;;;;;;;27.40;55.02;99924.16;5015626;28;20674;-72
2023/05/23 10:33:03;;;;;;;0.90;0.90;;;;;;;27.76;55.12;99918.56;5050351;28;20231;-72
2023/05/23 10:35:42;;;;;;;0.80;0.80;;;;;;;27.98;54.46;99927.03;5050251;28;20200;-72
2023/05/23 10:38:18;;;;;;;0.90;0.90;;;;;;;27.84;54.15;99920.78;5014927;28;20700;-71
2023/05/23 10:40:54;;;;;;;0.80;0.80;;;;;;;28.38;51.65;99925.53;5050384;28;20199;-66
2023/05/23 10:43:28;;;;;;;0.90;0.90;;;;;;;28.37;51.32;99918.47;5049963;28;20652;-66
2023/05/23 10:45:55;;;;;;;0.82;0.82;;;;;;;28.01;51.37;99924.16;5049790;28;20212;-66
2023/05/23 10:48:32;;;;;;;0.80;0.80;;;;;;;27.53;51.86;99916.38;5050113;28;20584;-66
2023/05/23 10:51:05;;;;;;;1.10;1.10;;;;;;;27.43;52.68;99889.34;5050142;28;20207;-66
2023/05/23 10:53:35;;;;;;;0.90;0.90;;;;;;;27.50;53.87;99901.41;5049948;28;20245;-66
2023/05/23 10:56:04;;;;;;;0.90;0.90;;;;;;;27.66;51.54;99920.03;5050421;28;20203;-66
2023/05/23 10:58:32;;;;;;;0.80;0.80;;;;;;;28.01;51.76;99917.97;5049655;28;20317;-67
2023/05/23 11:01:02;;;;;;;0.77;0.77;;;;;;;28.04;50.87;99923.13;5050029;28;20674;-70
2023/05/23 11:03:37;;;;;;;0.80;0.80;;;;;;;27.81;50.10;99908.50;5019314;28;20207;-67
2023/05/23 11:06:06;;;;;;;1.00;1.00;;;;;;;27.96;50.58;99907.59;5016483;28;20199;-68
2023/05/23 11:08:41;;;;;;;0.95;0.95;;;;;;;28.68;49.35;99903.31;5044849;28;20230;-67
2023/05/23 11:11:08;;;;;;;0.93;0.93;;;;;;;28.62;49.36;99917.81;5054124;28;20261;-72
2023/05/23 11:14:02;;;;;;;1.13;1.13;;;;;;;28.45;50.05;99908.22;5054193;28;20229;-72
2023/05/23 11:16:30;;;;;;;0.88;0.88;;;;;;;28.50;49.28;99902.59;4992325;28;20244;-71
2023/05/23 11:19:24;;;;;;;0.80;0.80;;;;;;;28.57;48.23;99895.94;4992116;28;20321;-71
2023/05/23 11:21:53;;;;;;;0.90;0.90;;;;;;;28.37;49.74;99898.94;4992373;28;20631;-71
2023/05/23 11:24:21;;;;;;;1.00;1.00;;;;;;;27.55;49.13;99893.16;4992289;28;20676;-72
2023/05/23 11:26:58;;;;;;;0.90;0.90;;;;;;;27.84;49.69;99900.31;4992065;28;20197;-70
2023/05/23 11:29:27;;;;;;;1.00;1.00;;;;;;;27.40;50.28;99894.00;4992005;28;20208;-72
2023/05/23 11:31:54;;;;;;;1.00;1.00;;;;;;;27.45;50.43;99895.50;4943161;28;20245;-72